sensor_id;sensor_type;location;lat;lon;timestamp;pressure;altitude;pressure_sealevel;temperature;humidity
52993;BME280;38875;52.216;21.040;2023-01-24T06:17:44;145255.63;;;1.43;100.00
52993;BME280;38875;52.216;21.040;2023-01-24T06:20:11;145268.25;;;1.48;100.00
52993;BME280;38875;52.216;21.040;2023-01-24T06:22:44;145256.88;;;1.44;100.00
52993;BME280;38875;52.216;21.040;2023-01-24T06:25:16;145283.38;;;1.54;100.00
52993;BME280;38875;52.216;21.040;2023-01-24T06:27:44;145287.16;;;1.56;100.00
52993;BME280;38875;52.216;21.040;2023-01-24T06:30:12;145302.28;;;1.62;100.00
52993;BME280;38875;52.216;21.040;2023-01-24T06:38:19;145304.81;;;1.63;100.00
52993;BME280;38875;52.216;21.040;2023-01-24T06:40:46;145322.44;;;1.70;100.00
52993;BME280;38875;52.216;21.040;2023-01-24T06:43:14;145327.47;;;1.72;100.00
52993;BME280;38875;52.216;21.040;2023-01-24T06:45:40;145332.56;;;1.74;100.00
52993;BME280;38875;52.216;21.040;2023-01-24T06:48:06;145379.19;;;1.93;100.00
52993;BME280;38875;52.216;21.040;2023-01-24T06:50:32;145351.47;;;1.82;100.00
52993;BME280;38875;52.216;21.040;2023-01-24T06:52:58;145400.63;;;2.02;100.00
52993;BME280;38875;52.216;21.040;2023-01-24T06:55:24;145376.69;;;1.92;100.00
52993;BME280;38875;52.216;21.040;2023-01-24T06:57:57;145360.31;;;1.85;100.00
52993;BME280;38875;52.216;21.040;2023-01-24T07:00:23;145365.34;;;1.88;100.00
52993;BME280;38875;52.216;21.040;2023-01-24T07:03:00;145380.47;;;1.94;100.00
52993;BME280;38875;52.216;21.040;2023-01-24T07:05:27;145370.38;;;1.90;100.00
52993;BME280;38875;52.216;21.040;2023-01-24T07:07:54;145375.41;;;1.92;100.00
52993;BME280;38875;52.216;21.040;2023-01-24T07:10:20;145371.63;;;1.90;100.00
52993;BME280;38875;52.216;21.040;2023-01-24T07:12:47;145410.75;;;2.06;100.00
52993;BME280;38875;52.216;21.040;2023-01-24T07:15:13;145393.06;;;1.99;100.00
52993;BME280;38875;52.216;21.040;2023-01-24T07:17:39;145396.84;;;2.00;100.00
52993;BME280;38875;52.216;21.040;2023-01-24T07:20:06;145395.59;;;2.00;100.00
52993;BME280;38875;52.216;21.040;2023-01-24T07:22:32;145408.25;;;2.05;100.00
52993;BME280;38875;52.216;21.040;2023-01-24T07:24:58;145404.47;;;2.03;100.00
52993;BME280;38875;52.216;21.040;2023-01-24T07:27:25;145396.84;;;2.00;100.00
52993;BME280;38875;52.216;21.040;2023-01-24T07:29:51;145390.53;;;1.98;100.00
52993;BME280;38875;52.216;21.040;2023-01-24T07:32:17;145413.28;;;2.07;100.00
52993;BME280;38875;52.216;21.040;2023-01-24T07:34:43;145415.81;;;2.08;100.00
52993;BME280;38875;52.216;21.040;2023-01-24T07:37:10;145418.31;;;2.09;100.00
52993;BME280;38875;52.216;21.040;2023-01-24T07:39:36;145425.88;;;2.12;100.00
52993;BME280;38875;52.216;21.040;2023-01-24T07:42:02;145457.41;;;2.25;100.00
52993;BME280;38875;52.216;21.040;2023-01-24T07:44:28;145419.59;;;2.09;100.00
52993;BME280;38875;52.216;21.040;2023-01-24T07:46:53;145422.09;;;2.10;100.00
52993;BME280;38875;52.216;21.040;2023-01-24T07:49:19;145415.81;;;2.08;100.00
52993;BME280;38875;52.216;21.040;2023-01-24T07:51:45;145433.44;;;2.15;100.00
52993;BME280;38875;52.216;21.040;2023-01-24T07:54:14;145444.78;;;2.20;100.00
52993;BME280;38875;52.216;21.040;2023-01-24T07:56:39;145458.66;;;2.25;100.00
52993;BME280;38875;52.216;21.040;2023-01-24T07:59:06;145496.53;;;2.40;100.00
52993;BME280;38875;52.216;21.040;2023-01-24T08:01:31;145480.16;;;2.34;100.00
52993;BME280;38875;52.216;21.040;2023-01-24T08:03:58;145492.75;;;2.39;100.00
52993;BME280;38875;52.216;21.040;2023-01-24T08:06:24;145540.66;;;2.58;100.00
52993;BME280;38875;52.216;21.040;2023-01-24T08:08:51;145496.53;;;2.40;100.00
52993;BME280;38875;52.216;21.040;2023-01-24T08:11:16;145512.94;;;2.47;100.00
52993;BME280;38875;52.216;21.040;2023-01-24T08:13:43;145535.63;;;2.56;100.00
52993;BME280;38875;52.216;21.040;2023-01-24T08:16:09;145577.28;;;2.73;100.00
52993;BME280;38875;52.216;21.040;2023-01-24T08:18:39;145606.28;;;2.85;100.00
52993;BME280;38875;52.216;21.040;2023-01-24T08:21:06;145562.16;;;2.67;100.00
52993;BME280;38875;52.216;21.040;2023-01-24T08:23:33;145584.84;;;2.76;100.00
52993;BME280;38875;52.216;21.040;2023-01-24T08:26:00;145579.81;;;2.74;100.00
52993;BME280;38875;52.216;21.040;2023-01-24T08:28:28;145549.53;;;2.62;100.00
52993;BME280;38875;52.216;21.040;2023-01-24T08:30:57;145552.06;;;2.63;100.00
52993;BME280;38875;52.216;21.040;2023-01-24T08:33:23;145587.38;;;2.77;100.00
52993;BME280;38875;52.216;21.040;2023-01-24T08:35:48;145630.31;;;2.94;100.00
52993;BME280;38875;52.216;21.040;2023-01-24T08:38:15;145606.28;;;2.85;100.00
52993;BME280;38875;52.216;21.040;2023-01-24T08:40:42;145637.88;;;2.97;100.00
52993;BME280;38875;52.216;21.040;2023-01-24T08:43:08;145647.97;;;3.01;100.00
52993;BME280;38875;52.216;21.040;2023-01-24T08:45:34;145639.13;;;2.98;100.00
52993;BME280;38875;52.216;21.040;2023-01-24T08:47:59;145627.78;;;2.93;100.00
52993;BME280;38875;52.216;21.040;2023-01-24T08:50:26;145646.72;;;3.01;100.00
52993;BME280;38875;52.216;21.040;2023-01-24T08:52:56;145680.78;;;3.15;100.00
52993;BME280;38875;52.216;21.040;2023-01-24T08:55:22;145651.75;;;3.03;100.00
52993;BME280;38875;52.216;21.040;2023-01-24T08:57:48;145670.69;;;3.10;100.00
52993;BME280;38875;52.216;21.040;2023-01-24T09:00:14;145673.19;;;3.11;100.00
52993;BME280;38875;52.216;21.040;2023-01-24T09:02:41;145698.47;;;3.22;100.00
52993;BME280;38875;52.216;21.040;2023-01-24T09:05:08;145670.69;;;3.10;100.00
52993;BME280;38875;52.216;21.040;2023-01-24T09:07:35;145665.63;;;3.08;100.00
52993;BME280;38875;52.216;21.040;2023-01-24T09:10:04;145688.34;;;3.18;100.00
52993;BME280;38875;52.216;21.040;2023-01-24T09:12:31;145713.63;;;3.28;100.00
52993;BME280;38875;52.216;21.040;2023-01-24T09:14:57;145695.97;;;3.21;100.00
52993;BME280;38875;52.216;21.040;2023-01-24T09:17:24;145660.59;;;3.06;100.00
52993;BME280;38875;52.216;21.040;2023-01-24T09:19:50;145659.31;;;3.06;100.00
52993;BME280;38875;52.216;21.040;2023-01-24T09:22:16;145693.44;;;3.20;100.00
52993;BME280;38875;52.216;21.040;2023-01-24T09:24:41;145709.84;;;3.26;100.00
52993;BME280;38875;52.216;21.040;2023-01-24T09:27:10;145731.28;;;3.35;100.00
52993;BME280;38875;52.216;21.040;2023-01-24T09:29:35;145743.91;;;3.40;100.00
52993;BME280;38875;52.216;21.040;2023-01-24T09:32:01;145723.72;;;3.32;100.00
52993;BME280;38875;52.216;21.040;2023-01-24T09:34:27;145733.81;;;3.36;100.00
52993;BME280;38875;52.216;21.040;2023-01-24T09:36:53;145728.75;;;3.34;100.00
52993;BME280;38875;52.216;21.040;2023-01-24T09:39:18;145755.28;;;3.45;100.00
52993;BME280;38875;52.216;21.040;2023-01-24T09:41:57;145765.41;;;3.49;100.00
52993;BME280;38875;52.216;21.040;2023-01-24T09:44:42;145766.69;;;3.49;100.00
52993;BME280;38875;52.216;21.040;2023-01-24T09:50:13;145742.66;;;3.39;100.00
52993;BME280;38875;52.216;21.040;2023-01-24T09:52:43;145750.22;;;3.42;100.00
52993;BME280;38875;52.216;21.040;2023-01-24T10:00:33;145756.53;;;3.45;100.00
52993;BME280;38875;52.216;21.040;2023-01-24T10:03:01;145714.88;;;3.28;100.00
52993;BME280;38875;52.216;21.040;2023-01-24T10:05:37;145706.06;;;3.25;100.00
52993;BME280;38875;52.216;21.040;2023-01-24T10:23:02;145626.53;;;2.93;100.00
52993;BME280;38875;52.216;21.040;2023-01-24T10:25:44;145655.53;;;3.04;100.00
52993;BME280;38875;52.216;21.040;2023-01-24T10:28:20;145661.84;;;3.07;100.00
52993;BME280;38875;52.216;21.040;2023-01-24T10:30:56;145679.50;;;3.14;100.00
52993;BME280;38875;52.216;21.040;2023-01-24T10:33:29;145675.72;;;3.13;100.00
52993;BME280;38875;52.216;21.040;2023-01-24T10:36:01;145698.47;;;3.22;100.00
52993;BME280;38875;52.216;21.040;2023-01-24T10:38:29;145680.78;;;3.15;100.00
52993;BME280;38875;52.216;21.040;2023-01-24T10:41:09;145647.97;;;3.01;100.00
52993;BME280;38875;52.216;21.040;2023-01-24T10:43:41;145658.06;;;3.05;100.00
52993;BME280;38875;52.216;21.040;2023-01-24T10:46:35;145670.69;;;3.10;100.00
52993;BME280;38875;52.216;21.040;2023-01-24T10:49:11;145678.25;;;3.14;100.00
52993;BME280;38875;52.216;21.040;2023-01-24T10:51:40;145721.19;;;3.31;100.00
52993;BME280;38875;52.216;21.040;2023-01-24T10:54:19;145711.09;;;3.27;100.00
52993;BME280;38875;52.216;21.040;2023-01-24T10:56:46;145671.94;;;3.11;100.00
52993;BME280;38875;52.216;21.040;2023-01-24T10:59:14;145682.03;;;3.15;100.00
52993;BME280;38875;52.216;21.040;2023-01-24T11:01:46;145671.94;;;3.11;100.00
52993;BME280;38875;52.216;21.040;2023-01-24T11:04:22;145688.34;;;3.18;100.00
52993;BME280;38875;52.216;21.040;2023-01-24T11:06:50;145668.16;;;3.09;100.00
52993;BME280;38875;52.216;21.040;2023-01-24T11:09:35;145642.94;;;2.99;100.00
52993;BME280;38875;52.216;21.040;2023-01-24T11:12:01;145632.84;;;2.95;100.00
52993;BME280;38875;52.216;21.040;2023-01-24T11:14:31;145670.69;;;3.10;100.00
52993;BME280;38875;52.216;21.040;2023-01-24T11:16:59;145683.28;;;3.16;100.00
52993;BME280;38875;52.216;21.040;2023-01-24T11:21:57;145695.97;;;3.21;100.00
52993;BME280;38875;52.216;21.040;2023-01-24T11:24:24;145759.06;;;3.46;100.00
52993;BME280;38875;52.216;21.040;2023-01-24T11:29:23;145716.16;;;3.29;100.00
52993;BME280;38875;52.216;21.040;2023-01-24T11:31:54;145706.06;;;3.25;100.00
52993;BME280;38875;52.216;21.040;2023-01-24T11:48:21;145740.13;;;3.38;100.00
52993;BME280;38875;52.216;21.040;2023-01-24T11:59:13;145730.03;;;3.34;100.00
52993;BME280;38875;52.216;21.040;2023-01-24T12:07:47;145724.97;;;3.32;100.00
52993;BME280;38875;52.216;21.040;2023-01-24T12:13:02;145726.25;;;3.33;100.00
52993;BME280;38875;52.216;21.040;2023-01-24T12:21:05;145748.97;;;3.42;100.00
52993;BME280;38875;52.216;21.040;2023-01-24T12:26:20;145737.59;;;3.37;100.00
52993;BME280;38875;52.216;21.040;2023-01-24T12:29:09;145784.34;;;3.56;100.00
52993;BME280;38875;52.216;21.040;2023-01-24T12:31:52;145707.31;;;3.25;100.00
52993;BME280;38875;52.216;21.040;2023-01-24T12:34:50;145733.81;;;3.36;100.00
52993;BME280;38875;52.216;21.040;2023-01-24T12:37:27;145774.25;;;3.52;100.00
52993;BME280;38875;52.216;21.040;2023-01-24T12:40:15;145791.91;;;3.59;100.00
52993;BME280;38875;52.216;21.040;2023-01-24T12:51:18;145755.28;;;3.45;100.00
52993;BME280;38875;52.216;21.040;2023-01-24T12:56:23;145730.03;;;3.34;100.00
52993;BME280;38875;52.216;21.040;2023-01-24T12:58:52;145756.53;;;3.45;100.00
52993;BME280;38875;52.216;21.040;2023-01-24T13:03:55;145728.75;;;3.34;100.00
52993;BME280;38875;52.216;21.040;2023-01-24T13:11:46;145731.28;;;3.35;100.00
52993;BME280;38875;52.216;21.040;2023-01-24T13:17:25;145738.84;;;3.38;100.00
52993;BME280;38875;52.216;21.040;2023-01-24T13:22:56;145723.72;;;3.32;100.00
52993;BME280;38875;52.216;21.040;2023-01-24T13:31:55;145747.69;;;3.41;100.00
52993;BME280;38875;52.216;21.040;2023-01-24T13:34:31;145751.47;;;3.43;100.00
52993;BME280;38875;52.216;21.040;2023-01-24T13:37:00;145735.06;;;3.36;100.00
52993;BME280;38875;52.216;21.040;2023-01-24T13:39:31;145733.81;;;3.36;100.00
52993;BME280;38875;52.216;21.040;2023-01-24T13:42:17;145731.28;;;3.35;100.00
52993;BME280;38875;52.216;21.040;2023-01-24T13:44:44;145723.72;;;3.32;100.00
52993;BME280;38875;52.216;21.040;2023-01-24T13:49:44;145728.75;;;3.34;100.00
52993;BME280;38875;52.216;21.040;2023-01-24T13:55:05;145707.31;;;3.25;100.00
52993;BME280;38875;52.216;21.040;2023-01-24T13:58:33;145685.81;;;3.17;100.00
52993;BME280;38875;52.216;21.040;2023-01-24T14:00:46;145706.06;;;3.25;100.00
52993;BME280;38875;52.216;21.040;2023-01-24T14:05:48;145746.44;;;3.41;100.00
52993;BME280;38875;52.216;21.040;2023-01-24T14:16:11;145713.63;;;3.28;100.00
52993;BME280;38875;52.216;21.040;2023-01-24T14:21:20;145732.56;;;3.35;100.00
52993;BME280;38875;52.216;21.040;2023-01-24T14:23:51;145731.28;;;3.35;100.00
52993;BME280;38875;52.216;21.040;2023-01-24T14:26:22;145721.19;;;3.31;100.00
52993;BME280;38875;52.216;21.040;2023-01-24T14:28:54;145726.25;;;3.33;100.00
52993;BME280;38875;52.216;21.040;2023-01-24T14:31:26;145718.69;;;3.30;100.00
52993;BME280;38875;52.216;21.040;2023-01-24T14:34:07;145698.47;;;3.22;100.00
52993;BME280;38875;52.216;21.040;2023-01-24T14:36:37;145695.97;;;3.21;100.00
52993;BME280;38875;52.216;21.040;2023-01-24T14:39:21;145674.47;;;3.12;100.00
52993;BME280;38875;52.216;21.040;2023-01-24T14:42:12;145670.69;;;3.10;100.00
52993;BME280;38875;52.216;21.040;2023-01-24T14:44:39;145678.25;;;3.14;100.00
52993;BME280;38875;52.216;21.040;2023-01-24T14:47:22;145665.63;;;3.08;100.00
52993;BME280;38875;52.216;21.040;2023-01-24T14:49:54;145670.69;;;3.10;100.00
52993;BME280;38875;52.216;21.040;2023-01-24T14:52:28;145645.44;;;3.00;100.00
52993;BME280;38875;52.216;21.040;2023-01-24T14:54:59;145617.69;;;2.89;100.00
52993;BME280;38875;52.216;21.040;2023-01-24T14:57:30;145627.78;;;2.93;100.00
52993;BME280;38875;52.216;21.040;2023-01-24T15:00:00;145645.44;;;3.00;100.00
52993;BME280;38875;52.216;21.040;2023-01-24T15:02:26;145645.44;;;3.00;100.00
52993;BME280;38875;52.216;21.040;2023-01-24T15:04:53;145627.78;;;2.93;100.00
52993;BME280;38875;52.216;21.040;2023-01-24T15:07:18;145611.34;;;2.87;100.00
52993;BME280;38875;52.216;21.040;2023-01-24T15:09:44;145606.28;;;2.85;100.00
52993;BME280;38875;52.216;21.040;2023-01-24T15:14:56;145605.03;;;2.84;100.00
52993;BME280;38875;52.216;21.040;2023-01-24T15:17:27;145605.03;;;2.84;100.00
52993;BME280;38875;52.216;21.040;2023-01-24T15:20:00;145640.41;;;2.98;100.00
52993;BME280;38875;52.216;21.040;2023-01-24T15:22:36;145601.25;;;2.83;100.00
52993;BME280;38875;52.216;21.040;2023-01-24T15:25:02;145615.13;;;2.88;100.00
52993;BME280;38875;52.216;21.040;2023-01-24T15:33:10;145603.78;;;2.84;100.00
52993;BME280;38875;52.216;21.040;2023-01-24T15:35:48;145589.91;;;2.78;100.00
52993;BME280;38875;52.216;21.040;2023-01-24T15:38:23;145582.34;;;2.75;100.00
52993;BME280;38875;52.216;21.040;2023-01-24T15:41:00;145587.38;;;2.77;100.00
52993;BME280;38875;52.216;21.040;2023-01-24T15:43:48;145564.69;;;2.68;100.00
52993;BME280;38875;52.216;21.040;2023-01-24T15:54:29;145587.38;;;2.77;100.00
52993;BME280;38875;52.216;21.040;2023-01-24T15:56:58;145579.81;;;2.74;100.00
52993;BME280;38875;52.216;21.040;2023-01-24T15:59:25;145607.56;;;2.85;100.00
52993;BME280;38875;52.216;21.040;2023-01-24T16:01:51;145617.69;;;2.89;100.00
52993;BME280;38875;52.216;21.040;2023-01-24T16:04:19;145603.78;;;2.84;100.00
52993;BME280;38875;52.216;21.040;2023-01-24T16:06:46;145584.84;;;2.76;100.00
52993;BME280;38875;52.216;21.040;2023-01-24T16:09:12;145608.81;;;2.86;100.00
52993;BME280;38875;52.216;21.040;2023-01-24T16:11:40;145612.59;;;2.87;100.00
52993;BME280;38875;52.216;21.040;2023-01-24T16:14:12;145651.75;;;3.03;100.00
52993;BME280;38875;52.216;21.040;2023-01-24T16:16:40;145645.44;;;3.00;100.00
52993;BME280;38875;52.216;21.040;2023-01-24T16:19:14;145622.75;;;2.91;100.00
52993;BME280;38875;52.216;21.040;2023-01-24T16:21:40;145594.94;;;2.80;100.00
52993;BME280;38875;52.216;21.040;2023-01-24T16:24:06;145597.47;;;2.81;100.00
